Time;durP1;ratioP1;P1;durP2;ratioP2;P2;SDS_P1;SDS_P2;PMS_P1;PMS_P2;Temp;Humidity;BMP_temperature;BMP_pressure;BME280_temperature;BME280_humidity;BME280_pressure;Samples;Min_cycle;Max_cycle;Signal;HPM_P1;HPM_P2
2023/12/20 00:00:11;;;;;;;4.07;2.83;;;;;;;6.30;100.00;100946.69;6145701;28;20238;-67
2023/12/20 00:03:32;;;;;;;4.03;2.00;;;;;;;6.22;100.00;100940.97;6126447;28;20314;-67
2023/12/20 00:06:53;;;;;;;6.07;2.20;;;;;;;6.16;100.00;100944.94;6127769;28;20235;-68
2023/12/20 00:10:14;;;;;;;4.63;2.00;;;;;;;6.15;100.00;100945.06;6130710;28;20232;-67
2023/12/20 00:13:35;;;;;;;4.30;3.13;;;;;;;6.16;100.00;100941.41;6127269;28;20235;-68
2023/12/20 00:16:58;;;;;;;6.10;3.03;;;;;;;6.12;100.00;100929.19;6135695;28;20794;-68
2023/12/20 00:20:19;;;;;;;2.40;2.07;;;;;;;6.10;100.00;100939.16;6125499;28;20802;-68
2023/12/20 00:23:40;;;;;;;7.90;2.67;;;;;;;6.08;100.00;100935.72;6135493;28;20231;-68
2023/12/20 00:27:01;;;;;;;5.10;2.20;;;;;;;6.02;100.00;100934.34;6128105;28;20314;-67
2023/12/20 00:30:22;;;;;;;7.87;2.17;;;;;;;6.06;100.00;100929.63;6125458;28;20234;-67
2023/12/20 00:33:46;;;;;;;3.03;2.27;;;;;;;6.07;100.00;100929.50;6128340;28;20609;-68
2023/12/20 00:37:06;;;;;;;2.50;2.17;;;;;;;6.11;100.00;100919.47;6125078;28;20230;-68
2023/12/20 00:40:27;;;;;;;35.13;5.33;;;;;;;6.07;100.00;100920.66;6125063;28;20239;-67
2023/12/20 00:43:48;;;;;;;10.33;3.10;;;;;;;6.07;100.00;100917.97;6126155;28;20226;-67
2023/12/20 00:47:09;;;;;;;10.73;2.53;;;;;;;6.05;100.00;100918.06;6131816;28;20247;-69
2023/12/20 00:50:32;;;;;;;9.27;3.03;;;;;;;6.13;100.00;100898.81;6129716;28;20234;-67
2023/12/20 00:53:54;;;;;;;5.90;2.33;;;;;;;6.14;100.00;100905.88;6127360;28;20235;-67
2023/12/20 00:57:15;;;;;;;5.40;2.83;;;;;;;6.17;100.00;100895.81;6122759;28;20235;-68
2023/12/20 01:00:36;;;;;;;4.27;2.73;;;;;;;6.24;100.00;100893.53;6117351;28;20235;-67
2023/12/20 01:03:57;;;;;;;4.23;2.80;;;;;;;6.27;100.00;100893.34;6123740;28;20231;-67
2023/12/20 01:07:19;;;;;;;5.00;2.07;;;;;;;6.20;100.00;100882.22;6128537;28;20262;-67
2023/12/20 01:10:40;;;;;;;9.43;2.17;;;;;;;6.13;100.00;100883.59;6124983;28;20235;-67
2023/12/20 01:14:01;;;;;;;6.33;2.27;;;;;;;6.09;100.00;100894.66;6124916;28;20602;-67
2023/12/20 01:17:22;;;;;;;4.53;2.03;;;;;;;6.09;100.00;100883.94;6139833;28;20227;-68
2023/12/20 01:20:43;;;;;;;5.13;2.63;;;;;;;6.08;100.00;100890.25;6135601;28;20235;-67
2023/12/20 01:24:05;;;;;;;6.60;1.93;;;;;;;6.02;100.00;100888.84;6141404;28;20227;-67
2023/12/20 01:27:26;;;;;;;6.20;2.00;;;;;;;5.99;100.00;100885.53;6139627;28;20234;-68
2023/12/20 01:30:47;;;;;;;5.90;3.30;;;;;;;5.99;100.00;100869.47;6137264;28;20318;-68
2023/12/20 01:34:08;;;;;;;11.53;3.03;;;;;;;5.98;100.00;100876.66;6136901;28;20226;-67
2023/12/20 01:37:29;;;;;;;8.47;2.87;;;;;;;5.94;100.00;100876.97;6127117;28;20231;-67
2023/12/20 01:40:51;;;;;;;5.03;2.23;;;;;;;5.92;100.00;100877.09;6131665;28;20354;-68
2023/12/20 01:44:12;;;;;;;3.90;3.03;;;;;;;5.91;100.00;100883.38;6128301;28;20247;-68
2023/12/20 01:47:33;;;;;;;3.40;3.10;;;;;;;5.86;100.00;100869.47;6122411;28;20628;-67
2023/12/20 01:50:54;;;;;;;3.23;1.90;;;;;;;5.86;100.00;100865.97;6135880;28;20231;-67
2023/12/20 01:54:15;;;;;;;4.57;2.33;;;;;;;5.89;100.00;100858.56;6134512;28;20243;-67
2023/12/20 01:57:38;;;;;;;16.30;4.53;;;;;;;5.98;100.00;100865.97;6121262;28;20239;-67
2023/12/20 02:00:59;;;;;;;3.10;2.37;;;;;;;5.96;100.00;100883.94;6130673;28;20238;-68
2023/12/20 02:04:20;;;;;;;7.27;3.17;;;;;;;5.94;100.00;100861.78;6131896;28;20258;-67
2023/12/20 02:07:41;;;;;;;8.63;2.20;;;;;;;5.91;100.00;100855.78;6133840;28;20258;-67
2023/12/20 02:11:02;;;;;;;5.10;2.23;;;;;;;5.88;100.00;100856.88;6122311;28;20361;-68
2023/12/20 02:14:24;;;;;;;6.23;2.10;;;;;;;5.74;100.00;100843.53;6130587;28;20428;-68
2023/12/20 02:17:48;;;;;;;4.47;2.70;;;;;;;5.75;100.00;100839.06;6128441;28;20238;-68
2023/12/20 02:21:10;;;;;;;3.23;2.63;;;;;;;5.72;100.00;100832.09;6131510;28;20239;-67
2023/12/20 02:24:33;;;;;;;6.80;3.50;;;;;;;5.74;100.00;100837.38;6120057;28;20235;-68
2023/12/20 02:27:54;;;;;;;5.50;2.23;;;;;;;5.75;100.00;100823.88;6131062;28;20267;-67
2023/12/20 02:31:15;;;;;;;2.03;1.80;;;;;;;5.81;100.00;100830.59;6130481;28;20231;-67
2023/12/20 02:34:36;;;;;;;3.17;1.77;;;;;;;5.81;100.00;100830.59;6129904;28;20523;-67
2023/12/20 02:37:57;;;;;;;4.33;2.03;;;;;;;5.79;100.00;100824.50;6127641;28;20227;-68
2023/12/20 02:41:19;;;;;;;6.07;3.20;;;;;;;5.81;100.00;100819.91;6127671;28;20235;-68
2023/12/20 02:44:40;;;;;;;8.60;3.07;;;;;;;5.82;100.00;100816.28;6130574;28;22331;-69
2023/12/20 02:48:01;;;;;;;4.73;2.93;;;;;;;5.82;100.00;100822.47;6126593;28;20230;-67
2023/12/20 02:51:22;;;;;;;7.70;2.67;;;;;;;5.83;100.00;100808.16;6130405;28;20235;-68
2023/12/20 02:54:43;;;;;;;5.23;2.97;;;;;;;5.83;100.00;100804.59;6131735;28;20240;-68
2023/12/20 02:58:05;;;;;;;3.23;2.87;;;;;;;5.82;100.00;100800.22;6128020;28;20235;-68
2023/12/20 03:01:27;;;;;;;6.40;2.70;;;;;;;5.79;100.00;100811.13;6126439;28;20227;-67
2023/12/20 03:04:48;;;;;;;7.50;2.97;;;;;;;5.78;100.00;100796.06;6129418;28;20260;-68
2023/12/20 03:08:10;;;;;;;4.80;2.43;;;;;;;5.85;100.00;100800.91;6128837;28;20230;-68
2023/12/20 03:11:31;;;;;;;6.70;2.53;;;;;;;5.87;100.00;100793.63;6134322;28;20231;-68
2023/12/20 03:14:54;;;;;;;4.03;2.70;;;;;;;5.81;100.00;100788.66;6128540;28;20235;-68
2023/12/20 03:18:15;;;;;;;3.00;2.00;;;;;;;5.81;100.00;100790.50;6126876;28;20646;-67
2023/12/20 03:21:35;;;;;;;4.47;2.50;;;;;;;5.73;100.00;100791.03;6131377;28;20227;-68
2023/12/20 03:24:56;;;;;;;4.17;3.00;;;;;;;5.76;100.00;100782.78;6131014;28;20293;-67
2023/12/20 03:28:18;;;;;;;5.40;2.60;;;;;;;5.74;100.00;100768.66;6126968;28;20242;-67
2023/12/20 03:31:40;;;;;;;9.83;3.30;;;;;;;5.79;100.00;100771.88;6126472;28;20714;-68
2023/12/20 03:35:01;;;;;;;4.87;2.73;;;;;;;5.88;100.00;100770.41;6136350;28;20609;-68
2023/12/20 03:38:23;;;;;;;3.83;2.13;;;;;;;5.77;100.00;100759.56;6134768;28;20253;-68
2023/12/20 03:41:44;;;;;;;8.50;3.63;;;;;;;5.83;100.00;100768.03;6133065;28;20238;-68
2023/12/20 03:45:06;;;;;;;4.83;1.90;;;;;;;5.75;100.00;100767.72;6126202;28;20238;-68
2023/12/20 03:48:29;;;;;;;10.17;2.30;;;;;;;5.74;100.00;100760.63;6124041;28;20235;-68
2023/12/20 03:51:50;;;;;;;5.13;1.80;;;;;;;5.77;100.00;100755.09;6129626;28;20227;-68
2023/12/20 03:55:11;;;;;;;4.50;1.83;;;;;;;5.75;100.00;100749.00;6130141;28;20318;-69
2023/12/20 03:58:31;;;;;;;6.93;2.87;;;;;;;5.73;100.00;100734.88;6143011;28;20235;-67
2023/12/20 04:01:53;;;;;;;7.30;2.20;;;;;;;5.84;100.00;100728.78;6125472;28;20247;-67
2023/12/20 04:05:15;;;;;;;3.53;1.73;;;;;;;5.86;100.00;100732.22;6127939;28;20238;-67
2023/12/20 04:08:36;;;;;;;3.70;2.00;;;;;;;5.86;100.00;100734.91;6141559;28;20235;-68
2023/12/20 04:11:57;;;;;;;7.23;3.37;;;;;;;5.86;100.00;100741.06;6130372;28;20235;-67
2023/12/20 04:15:18;;;;;;;10.63;3.20;;;;;;;5.85;100.00;100727.81;6130504;28;20235;-67
2023/12/20 04:18:39;;;;;;;5.43;2.10;;;;;;;5.83;100.00;100735.06;6117148;28;20236;-67
2023/12/20 04:22:01;;;;;;;9.03;1.80;;;;;;;5.90;100.00;100717.66;6141452;28;20246;-68
2023/12/20 04:25:22;;;;;;;2.40;2.20;;;;;;;5.91;100.00;100709.50;6130894;28;20231;-68
2023/12/20 04:28:42;;;;;;;8.37;3.00;;;;;;;5.92;100.00;100711.22;6126711;28;20239;-68
2023/12/20 04:32:04;;;;;;;4.03;3.60;;;;;;;5.89;100.00;100699.88;6127540;28;22290;-67
2023/12/20 04:35:26;;;;;;;2.87;2.57;;;;;;;5.89;100.00;100706.09;6124810;28;20625;-68
2023/12/20 04:38:48;;;;;;;4.83;1.33;;;;;;;5.93;100.00;100696.88;6127936;28;20539;-68
2023/12/20 04:42:08;;;;;;;5.73;2.30;;;;;;;5.91;100.00;100693.47;6127793;28;20588;-68
2023/12/20 04:45:29;;;;;;;5.23;2.70;;;;;;;5.95;100.00;100680.72;6128841;28;20239;-68
2023/12/20 04:48:50;;;;;;;3.17;2.30;;;;;;;5.94;100.00;100674.53;6121936;28;22199;-68
2023/12/20 04:52:11;;;;;;;6.97;3.10;;;;;;;5.97;100.00;100679.63;6127050;28;20243;-68
2023/12/20 04:55:34;;;;;;;6.47;1.63;;;;;;;5.97;100.00;100666.25;6137495;28;20242;-68
2023/12/20 04:58:54;;;;;;;2.80;2.00;;;;;;;5.95;100.00;100668.19;6127191;28;20239;-68
2023/12/20 05:02:15;;;;;;;8.47;3.23;;;;;;;5.97;100.00;100676.09;6128651;28;20223;-67
2023/12/20 05:05:36;;;;;;;5.33;2.20;;;;;;;6.05;100.00;100673.75;6125355;28;22377;-68
2023/12/20 05:08:57;;;;;;;5.20;2.67;;;;;;;6.00;100.00;100679.44;6130240;28;20258;-68
2023/12/20 05:12:20;;;;;;;5.70;1.87;;;;;;;6.02;100.00;100661.44;6124776;28;20255;-68
2023/12/20 05:15:41;;;;;;;8.20;2.70;;;;;;;6.07;100.00;100661.94;6125782;28;20250;-68
2023/12/20 05:19:06;;;;;;;6.70;2.83;;;;;;;6.06;100.00;100665.59;6115070;28;20620;-67
2023/12/20 05:22:27;;;;;;;4.50;1.73;;;;;;;6.12;100.00;100657.13;6124687;28;20227;-67
2023/12/20 05:25:48;;;;;;;6.17;2.17;;;;;;;6.14;100.00;100662.34;6131200;28;20235;-68
2023/12/20 05:29:10;;;;;;;7.03;2.83;;;;;;;6.12;100.00;100643.72;6125167;28;20327;-68
2023/12/20 05:32:31;;;;;;;3.60;2.37;;;;;;;6.13;100.00;100648.09;6128738;28;20226;-68
2023/12/20 05:35:52;;;;;;;4.77;2.50;;;;;;;6.14;100.00;100649.81;6126277;28;20231;-68
2023/12/20 05:39:14;;;;;;;5.50;2.23;;;;;;;6.16;100.00;100652.38;6141178;28;20231;-68
2023/12/20 05:42:35;;;;;;;2.50;1.53;;;;;;;6.13;100.00;100647.28;6128736;28;20254;-68
2023/12/20 05:45:57;;;;;;;7.97;2.70;;;;;;;6.10;100.00;100645.66;6130727;28;20235;-68
2023/12/20 05:49:18;;;;;;;4.43;2.17;;;;;;;6.03;100.00;100663.13;6131781;28;20243;-67
2023/12/20 05:52:39;;;;;;;4.37;2.30;;;;;;;5.98;100.00;100651.94;6122167;28;20239;-67
2023/12/20 05:56:00;;;;;;;4.83;3.30;;;;;;;5.99;100.00;100639.38;6131557;28;20231;-67
2023/12/20 05:59:21;;;;;;;5.40;2.47;;;;;;;6.03;100.00;100633.69;6122347;28;20591;-68
2023/12/20 06:02:44;;;;;;;6.33;2.20;;;;;;;6.04;100.00;100638.09;6123776;28;20243;-67
2023/12/20 06:06:08;;;;;;;4.77;2.47;;;;;;;6.05;100.00;100634.44;6121558;28;20259;-68
2023/12/20 06:09:29;;;;;;;6.13;2.83;;;;;;;6.06;100.00;100641.50;6126546;28;20262;-68
2023/12/20 06:12:51;;;;;;;8.97;4.13;;;;;;;6.14;100.00;100623.06;6134446;28;20546;-68
2023/12/20 06:16:12;;;;;;;3.47;2.27;;;;;;;6.14;100.00;100632.91;6125787;28;20318;-68
2023/12/20 06:19:34;;;;;;;13.63;3.43;;;;;;;6.06;100.00;100612.09;6140705;28;20234;-68
2023/12/20 06:22:55;;;;;;;6.33;2.67;;;;;;;6.13;100.00;100605.28;6136093;28;20258;-68
2023/12/20 06:26:16;;;;;;;4.80;2.03;;;;;;;6.13;100.00;100602.59;6132384;28;20246;-67
2023/12/20 06:29:37;;;;;;;7.07;4.07;;;;;;;6.16;100.00;100626.47;6137660;28;20235;-67
2023/12/20 06:32:58;;;;;;;7.43;2.40;;;;;;;6.19;100.00;100604.84;6135890;28;20633;-68
2023/12/20 06:36:20;;;;;;;7.50;3.20;;;;;;;6.26;100.00;100614.09;6137352;28;20236;-68
2023/12/20 06:39:42;;;;;;;4.90;2.50;;;;;;;6.26;100.00;100597.19;6134429;28;20531;-68
2023/12/20 06:43:03;;;;;;;10.77;2.40;;;;;;;6.24;100.00;100613.38;6133420;28;20235;-68
2023/12/20 06:46:24;;;;;;;8.60;3.57;;;;;;;6.25;100.00;100604.38;6140685;28;20238;-68
2023/12/20 06:49:45;;;;;;;13.23;5.13;;;;;;;6.26;100.00;100592.69;6140424;28;20235;-69
2023/12/20 06:53:07;;;;;;;10.40;3.47;;;;;;;6.27;100.00;100586.38;6139347;28;20239;-68
2023/12/20 06:56:28;;;;;;;5.70;2.87;;;;;;;6.26;100.00;100583.81;6144921;28;20547;-67
2023/12/20 06:59:49;;;;;;;6.67;2.70;;;;;;;6.25;100.00;100577.63;6138175;28;20231;-68
2023/12/20 07:03:10;;;;;;;9.87;3.20;;;;;;;6.25;100.00;100587.47;6136396;28;20686;-68
2023/12/20 07:06:31;;;;;;;6.87;5.10;;;;;;;6.24;100.00;100573.22;6130052;28;20235;-68
2023/12/20 07:09:53;;;;;;;3.20;2.50;;;;;;;6.27;100.00;100562.31;6140735;28;20288;-68
2023/12/20 07:13:14;;;;;;;5.37;2.80;;;;;;;6.23;100.00;100563.50;6135188;28;20235;-68
2023/12/20 07:16:36;;;;;;;10.83;3.90;;;;;;;6.26;100.00;100565.94;6140199;28;20235;-68
2023/12/20 07:19:56;;;;;;;12.03;3.70;;;;;;;6.30;100.00;100563.91;6142641;28;20239;-68
2023/12/20 07:23:17;;;;;;;8.37;3.07;;;;;;;6.29;100.00;100579.09;6139368;28;20230;-67
2023/12/20 07:26:40;;;;;;;5.93;2.77;;;;;;;6.33;100.00;100559.16;6136413;28;20510;-68
2023/12/20 07:30:00;;;;;;;7.03;3.07;;;;;;;6.35;100.00;100575.09;6141913;28;20235;-68
2023/12/20 07:33:21;;;;;;;33.47;4.80;;;;;;;6.37;100.00;100581.19;6138729;28;20235;-68
2023/12/20 07:36:42;;;;;;;6.33;3.57;;;;;;;6.40;100.00;100565.72;6132272;28;20238;-68
2023/12/20 07:40:04;;;;;;;6.00;2.83;;;;;;;6.43;100.00;100564.66;6138009;28;20239;-68
2023/12/20 07:43:26;;;;;;;9.90;5.20;;;;;;;6.42;100.00;100563.78;6139987;28;20235;-68
2023/12/20 07:46:48;;;;;;;4.90;3.57;;;;;;;6.45;100.00;100543.97;6141604;28;20322;-68
2023/12/20 07:50:10;;;;;;;7.47;3.40;;;;;;;6.41;100.00;100550.53;6146640;28;20637;-68
2023/12/20 07:53:30;;;;;;;9.37;3.17;;;;;;;6.40;100.00;100552.34;6140766;28;20255;-69
2023/12/20 07:56:51;;;;;;;3.77;2.10;;;;;;;6.45;100.00;100542.13;6131490;28;20239;-68
2023/12/20 08:00:14;;;;;;;7.90;2.70;;;;;;;6.46;100.00;100556.38;6137516;28;20227;-68
2023/12/20 08:03:35;;;;;;;4.43;2.67;;;;;;;6.52;100.00;100541.66;6133516;28;20263;-68
2023/12/20 08:06:56;;;;;;;11.33;3.93;;;;;;;6.55;100.00;100541.44;6139639;28;20318;-67
2023/12/20 08:10:19;;;;;;;13.33;4.33;;;;;;;6.60;100.00;100541.91;6134413;28;20231;-67
2023/12/20 08:13:39;;;;;;;9.07;3.33;;;;;;;6.61;100.00;100536.47;6121342;28;20243;-67
2023/12/20 08:17:02;;;;;;;4.60;2.27;;;;;;;6.64;100.00;100521.97;6133793;28;20326;-68
2023/12/20 08:20:23;;;;;;;9.23;4.63;;;;;;;6.70;100.00;100519.66;6136076;28;20279;-68
2023/12/20 08:23:45;;;;;;;9.77;4.47;;;;;;;6.73;100.00;100499.81;6136555;28;20547;-68
2023/12/20 08:27:05;;;;;;;13.77;3.43;;;;;;;6.78;100.00;100485.06;6135547;28;20243;-69
2023/12/20 08:30:26;;;;;;;10.73;2.67;;;;;;;6.79;100.00;100500.19;6130095;28;20234;-67
2023/12/20 08:33:49;;;;;;;6.47;3.60;;;;;;;6.84;100.00;100487.28;6133683;28;20243;-67
2023/12/20 08:37:10;;;;;;;7.43;3.13;;;;;;;6.87;100.00;100504.94;6119049;28;20234;-67
2023/12/20 08:40:31;;;;;;;6.70;3.70;;;;;;;6.91;100.00;100484.94;6114376;28;20231;-66
2023/12/20 08:43:52;;;;;;;5.60;2.60;;;;;;;6.94;100.00;100468.66;6111076;28;20239;-66
2023/12/20 08:47:15;;;;;;;13.60;3.97;;;;;;;6.95;100.00;100467.66;6111811;28;20231;-67
2023/12/20 08:50:38;;;;;;;13.43;4.97;;;;;;;6.97;100.00;100479.97;6114201;28;20239;-67
2023/12/20 08:53:59;;;;;;;7.37;3.30;;;;;;;6.82;100.00;100465.09;6107919;28;20330;-67
2023/12/20 08:57:22;;;;;;;14.57;5.57;;;;;;;6.78;100.00;100458.28;6109930;28;20259;-66
2023/12/20 09:00:43;;;;;;;11.43;4.90;;;;;;;6.76;100.00;100470.97;6108366;28;20264;-66
2023/12/20 09:04:06;;;;;;;9.13;3.13;;;;;;;6.75;100.00;100477.31;6105942;28;20235;-66
2023/12/20 09:07:30;;;;;;;7.50;2.63;;;;;;;6.70;100.00;100484.84;6112358;28;20236;-66
2023/12/20 09:10:51;;;;;;;5.63;2.47;;;;;;;6.52;100.00;100454.16;6119703;28;20263;-67
2023/12/20 09:14:11;;;;;;;4.40;2.83;;;;;;;6.47;100.00;100445.63;6121051;28;20235;-68
2023/12/20 09:17:32;;;;;;;6.47;3.13;;;;;;;6.49;100.00;100458.91;6127164;28;20243;-67
2023/12/20 09:20:53;;;;;;;9.10;2.87;;;;;;;6.47;100.00;100477.75;6130770;28;20250;-68
2023/12/20 09:24:16;;;;;;;4.67;2.07;;;;;;;6.39;100.00;100493.56;6116833;28;20227;-68
2023/12/20 09:27:37;;;;;;;7.27;1.37;;;;;;;6.25;100.00;100504.50;6129580;28;20231;-68
2023/12/20 09:30:58;;;;;;;3.33;1.70;;;;;;;6.06;100.00;100483.66;6133623;28;20231;-68
2023/12/20 09:34:19;;;;;;;1.90;1.73;;;;;;;5.96;100.00;100498.72;6127866;28;20273;-68
2023/12/20 09:37:41;;;;;;;2.00;1.30;;;;;;;5.97;100.00;100481.66;6143476;28;20246;-68
2023/12/20 09:41:04;;;;;;;11.60;2.10;;;;;;;6.00;100.00;100496.63;6133772;28;20246;-68
2023/12/20 09:44:25;;;;;;;1.93;1.23;;;;;;;6.14;100.00;100493.75;6128745;28;20227;-67
2023/12/20 09:47:46;;;;;;;2.90;1.00;;;;;;;6.25;100.00;100510.72;6129381;28;20239;-68
2023/12/20 09:51:08;;;;;;;1.47;0.90;;;;;;;6.46;100.00;100521.59;6129594;28;20263;-67
2023/12/20 09:54:30;;;;;;;2.13;1.00;;;;;;;6.46;100.00;100505.53;6126150;28;20744;-67
2023/12/20 09:57:52;;;;;;;2.53;0.90;;;;;;;6.34;100.00;100525.22;6133385;28;20246;-68
2023/12/20 10:01:14;;;;;;;1.20;1.00;;;;;;;6.18;100.00;100498.75;6133525;28;20247;-67
2023/12/20 10:04:36;;;;;;;1.40;0.80;;;;;;;6.13;100.00;100510.81;6143536;28;20227;-68
2023/12/20 10:07:56;;;;;;;3.13;0.63;;;;;;;6.23;100.00;100496.59;6137445;28;20238;-67
2023/12/20 10:11:19;;;;;;;1.10;0.90;;;;;;;6.88;100.00;100490.56;6136470;28;20246;-68
2023/12/20 10:14:41;;;;;;;0.60;0.60;;;;;;;6.67;100.00;100477.06;6158724;28;20235;-68
2023/12/20 10:18:01;;;;;;;10.00;2.23;;;;;;;6.39;100.00;100504.28;6148564;28;20251;-67
2023/12/20 10:21:24;;;;;;;1.17;1.07;;;;;;;6.18;100.00;100527.34;6135616;28;20407;-68
2023/12/20 10:24:46;;;;;;;0.70;0.70;;;;;;;6.05;100.00;100518.56;6139990;28;20235;-67
2023/12/20 10:28:12;;;;;;;1.70;0.80;;;;;;;5.97;100.00;100529.81;6134109;28;20239;-68
2023/12/20 10:31:35;;;;;;;1.63;1.33;;;;;;;5.84;100.00;100510.31;6140277;28;20230;-67
2023/12/20 10:34:56;;;;;;;2.43;0.87;;;;;;;6.13;100.00;100516.97;6138149;28;20318;-67
2023/12/20 10:38:16;;;;;;;2.00;0.70;;;;;;;5.98;100.00;100483.38;6140494;28;20747;-67
2023/12/20 10:41:41;;;;;;;3.97;1.63;;;;;;;6.46;100.00;100492.13;6143040;28;20318;-67
2023/12/20 10:45:02;;;;;;;0.93;0.80;;;;;;;6.14;100.00;100486.59;6137638;28;20629;-67
2023/12/20 10:48:28;;;;;;;2.47;0.87;;;;;;;6.17;100.00;100483.69;6139391;28;20693;-68
2023/12/20 10:51:51;;;;;;;1.20;0.90;;;;;;;5.98;100.00;100471.81;6141320;28;20610;-68
2023/12/20 10:55:12;;;;;;;1.80;0.80;;;;;;;6.68;100.00;100465.34;6127376;28;20246;-67
2023/12/20 10:58:36;;;;;;;3.97;1.50;;;;;;;6.63;100.00;100470.25;6131939;28;20234;-68
2023/12/20 11:01:58;;;;;;;3.23;2.00;;;;;;;6.13;100.00;100479.50;6139685;28;20234;-68
2023/12/20 11:05:34;;;;;;;2.50;1.57;;;;;;;5.94;100.00;100462.34;6130075;28;20354;-68
2023/12/20 11:09:10;;;;;;;4.40;1.20;;;;;;;5.86;100.00;100483.47;6128073;28;20231;-67
2023/12/20 11:12:40;;;;;;;4.87;2.10;;;;;;;6.03;100.00;100458.97;6134255;28;20235;-66
2023/12/20 11:16:01;;;;;;;4.93;2.17;;;;;;;6.14;100.00;100478.56;6135952;28;20223;-67
2023/12/20 11:19:22;;;;;;;3.30;2.67;;;;;;;6.61;100.00;100472.19;6130069;28;20254;-68
2023/12/20 11:22:56;;;;;;;3.83;1.40;;;;;;;6.67;100.00;100486.91;6141056;28;20255;-68
2023/12/20 11:26:17;;;;;;;6.23;2.73;;;;;;;6.86;100.00;100485.31;6127286;28;20743;-67
2023/12/20 11:29:38;;;;;;;4.27;1.57;;;;;;;6.76;100.00;100465.59;6122575;28;20231;-67
2023/12/20 11:33:00;;;;;;;7.53;2.23;;;;;;;6.76;100.00;100480.84;6130309;28;20227;-67
2023/12/20 11:36:26;;;;;;;2.40;2.07;;;;;;;6.61;100.00;100520.41;6133036;28;20250;-68
2023/12/20 11:39:55;;;;;;;2.87;1.13;;;;;;;6.39;100.00;100506.97;6136465;28;20239;-68
2023/12/20 11:43:30;;;;;;;1.13;1.10;;;;;;;6.20;100.00;100498.63;6124175;28;20231;-68
2023/12/20 11:46:51;;;;;;;4.97;1.70;;;;;;;6.12;100.00;100483.19;6137198;28;20401;-67
2023/12/20 11:50:12;;;;;;;5.17;1.53;;;;;;;6.18;100.00;100484.53;6135672;28;20235;-67
2023/12/20 11:53:33;;;;;;;5.57;2.00;;;;;;;6.25;100.00;100477.75;6141478;28;20235;-67
2023/12/20 11:56:56;;;;;;;4.87;2.73;;;;;;;7.04;100.00;100491.03;6138943;28;20280;-67
2023/12/20 12:00:18;;;;;;;3.10;2.73;;;;;;;6.86;100.00;100481.81;6142733;28;20220;-66
2023/12/20 12:03:39;;;;;;;11.77;1.90;;;;;;;6.20;100.00;100466.53;6140730;28;20223;-67
2023/12/20 12:07:00;;;;;;;8.20;3.23;;;;;;;6.23;100.00;100488.56;6136672;28;20231;-67
2023/12/20 12:10:21;;;;;;;5.87;2.57;;;;;;;6.19;100.00;100489.78;6135394;28;20235;-67
2023/12/20 12:13:43;;;;;;;3.17;1.87;;;;;;;6.29;100.00;100489.91;6143713;28;20231;-66
2023/12/20 12:17:04;;;;;;;4.40;2.57;;;;;;;6.63;100.00;100466.72;6140197;28;20259;-66
2023/12/20 12:20:25;;;;;;;9.03;2.63;;;;;;;8.61;100.00;100462.47;6136705;28;20238;-67
2023/12/20 12:23:46;;;;;;;5.33;2.10;;;;;;;10.14;100.00;100445.78;6144123;28;20231;-68
2023/12/20 12:27:07;;;;;;;5.37;2.23;;;;;;;10.47;100.00;100447.13;6137020;28;20258;-67
2023/12/20 12:30:30;;;;;;;6.23;3.00;;;;;;;9.80;100.00;100442.66;6140503;28;20246;-67
2023/12/20 12:33:51;;;;;;;4.37;2.60;;;;;;;10.05;100.00;100434.00;6131952;28;20263;-68
2023/12/20 12:37:13;;;;;;;11.37;2.80;;;;;;;9.37;100.00;100447.56;6132464;28;20227;-66
2023/12/20 12:40:35;;;;;;;6.43;2.43;;;;;;;9.56;100.00;100445.75;6140361;28;20342;-67
2023/12/20 12:43:56;;;;;;;5.77;2.37;;;;;;;9.60;100.00;100447.19;6143654;28;20230;-68
2023/12/20 12:47:19;;;;;;;5.77;2.37;;;;;;;9.66;100.00;100449.31;6132222;28;21698;-68
2023/12/20 12:50:40;;;;;;;7.30;4.33;;;;;;;9.04;100.00;100440.72;6131443;28;23173;-68
2023/12/20 12:54:00;;;;;;;5.40;2.43;;;;;;;8.41;100.00;100446.38;6125840;28;20254;-67
2023/12/20 12:57:21;;;;;;;7.57;3.07;;;;;;;8.72;100.00;100446.25;6136528;28;20239;-68
2023/12/20 13:00:42;;;;;;;7.70;2.77;;;;;;;9.09;100.00;100454.59;6134308;28;20527;-67
2023/12/20 13:04:10;;;;;;;5.00;2.40;;;;;;;8.61;100.00;100451.72;6124368;28;20235;-67
2023/12/20 13:07:31;;;;;;;4.50;2.40;;;;;;;8.49;100.00;100458.16;6130485;28;20330;-68
2023/12/20 13:10:52;;;;;;;6.00;2.10;;;;;;;8.25;100.00;100465.66;6132678;28;20231;-68
2023/12/20 13:14:15;;;;;;;5.50;2.20;;;;;;;8.07;100.00;100468.03;6127849;28;20227;-68
2023/12/20 13:17:37;;;;;;;11.07;3.13;;;;;;;8.16;100.00;100460.16;6135773;28;20231;-68
2023/12/20 13:20:59;;;;;;;11.57;5.37;;;;;;;7.72;100.00;100462.09;6134344;28;20606;-67
2023/12/20 13:24:20;;;;;;;4.00;2.13;;;;;;;7.71;100.00;100462.25;6138933;28;20233;-68
2023/12/20 13:27:42;;;;;;;7.90;2.97;;;;;;;7.66;100.00;100462.63;6135918;28;21041;-67
2023/12/20 13:31:04;;;;;;;8.83;4.27;;;;;;;7.50;100.00;100459.50;6138537;28;20235;-67
2023/12/20 13:34:25;;;;;;;7.80;2.57;;;;;;;7.70;100.00;100464.06;6139775;28;20231;-68
2023/12/20 13:37:47;;;;;;;6.00;3.23;;;;;;;7.27;100.00;100471.28;6144933;28;20239;-68
2023/12/20 13:41:08;;;;;;;5.60;2.67;;;;;;;7.21;100.00;100461.91;6134298;28;20239;-68
2023/12/20 13:44:30;;;;;;;10.03;3.70;;;;;;;6.94;100.00;100469.50;6143486;28;20246;-69
2023/12/20 13:47:51;;;;;;;4.40;2.53;;;;;;;6.96;100.00;100470.25;6142640;28;20234;-68
2023/12/20 13:51:12;;;;;;;7.60;3.83;;;;;;;6.95;100.00;100473.00;6134461;28;20227;-68
2023/12/20 13:54:34;;;;;;;10.37;4.30;;;;;;;6.71;100.00;100474.97;6128078;28;20239;-68
2023/12/20 13:57:55;;;;;;;8.80;4.73;;;;;;;6.66;100.00;100495.91;6134079;28;20541;-68
2023/12/20 14:01:16;;;;;;;10.67;4.00;;;;;;;6.67;100.00;100484.25;6142876;28;20723;-69
2023/12/20 14:04:38;;;;;;;7.30;3.83;;;;;;;6.91;100.00;100493.00;6142460;28;20242;-67
2023/12/20 14:08:00;;;;;;;6.10;3.60;;;;;;;6.97;100.00;100490.69;6135519;28;20609;-69
2023/12/20 14:11:23;;;;;;;9.13;4.53;;;;;;;6.89;100.00;100514.56;6135665;28;20251;-68
2023/12/20 14:14:44;;;;;;;7.87;3.57;;;;;;;6.85;100.00;100498.84;6152234;28;20231;-67
2023/12/20 14:18:07;;;;;;;8.10;3.80;;;;;;;6.85;100.00;100502.38;6130744;28;20239;-68
2023/12/20 14:21:28;;;;;;;9.40;4.33;;;;;;;6.82;100.00;100496.44;6121458;28;20522;-69
2023/12/20 14:24:49;;;;;;;7.73;4.57;;;;;;;6.83;100.00;100507.00;6136867;28;20499;-68
2023/12/20 14:28:14;;;;;;;11.90;3.80;;;;;;;6.88;100.00;100502.16;6138520;28;20759;-68
2023/12/20 14:31:35;;;;;;;7.57;3.47;;;;;;;6.89;100.00;100500.31;6134564;28;20561;-69
2023/12/20 14:34:56;;;;;;;7.17;3.93;;;;;;;6.88;100.00;100506.66;6140920;28;20235;-68
2023/12/20 14:38:17;;;;;;;6.63;3.17;;;;;;;6.87;100.00;100500.44;6126895;28;20262;-67
2023/12/20 14:41:38;;;;;;;8.97;3.83;;;;;;;6.87;100.00;100502.25;6136872;28;20243;-68
2023/12/20 14:45:00;;;;;;;10.73;3.83;;;;;;;6.82;100.00;100504.47;6141365;28;20231;-68
2023/12/20 14:48:21;;;;;;;5.50;3.13;;;;;;;6.79;100.00;100491.28;6133075;28;20223;-68
2023/12/20 14:51:44;;;;;;;6.77;3.17;;;;;;;6.77;100.00;100510.19;6127686;28;20504;-68
2023/12/20 14:55:05;;;;;;;10.87;4.67;;;;;;;6.64;100.00;100504.06;6148520;28;20306;-67
2023/12/20 14:58:26;;;;;;;9.10;2.83;;;;;;;6.65;100.00;100511.16;6137464;28;20259;-68
2023/12/20 15:01:49;;;;;;;7.83;2.77;;;;;;;6.67;100.00;100521.72;6136211;28;20235;-69
2023/12/20 15:05:10;;;;;;;9.37;2.90;;;;;;;6.56;100.00;100519.03;6145639;28;20227;-67
2023/12/20 15:08:31;;;;;;;7.43;3.63;;;;;;;6.51;100.00;100524.75;6136968;28;20610;-68
2023/12/20 15:11:52;;;;;;;13.23;4.00;;;;;;;6.47;100.00;100525.13;6137583;28;20234;-67
2023/12/20 15:15:13;;;;;;;10.83;3.47;;;;;;;6.55;100.00;100525.38;6144410;28;20240;-68
2023/12/20 15:18:36;;;;;;;6.43;3.70;;;;;;;6.51;100.00;100521.22;6137529;28;20239;-67
2023/12/20 15:21:58;;;;;;;10.13;4.40;;;;;;;6.55;100.00;100514.66;6141189;28;20227;-68
2023/12/20 15:25:21;;;;;;;8.03;3.63;;;;;;;6.46;100.00;100510.88;6124263;28;20227;-69
2023/12/20 15:28:42;;;;;;;17.07;4.80;;;;;;;6.38;100.00;100506.09;6140447;28;20621;-69
2023/12/20 15:32:03;;;;;;;8.63;3.90;;;;;;;6.36;100.00;100507.22;6137363;28;20246;-69
2023/12/20 15:35:26;;;;;;;5.90;3.10;;;;;;;6.30;100.00;100508.50;6139765;28;20239;-68